sensor_id;sensor_type;location;lat;lon;timestamp;temperature;humidity
12815;DHT22;6472;52.328;13.070;2023-04-21T00:00:45;7.30;99.90
12815;DHT22;6472;52.328;13.070;2023-04-21T00:03:13;7.30;99.90
12815;DHT22;6472;52.328;13.070;2023-04-21T00:05:42;7.20;99.90
12815;DHT22;6472;52.328;13.070;2023-04-21T00:08:09;7.20;99.90
12815;DHT22;6472;52.328;13.070;2023-04-21T00:10:39;7.10;99.90
12815;DHT22;6472;52.328;13.070;2023-04-21T00:13:07;7.10;99.90
12815;DHT22;6472;52.328;13.070;2023-04-21T00:15:35;7.00;99.90
12815;DHT22;6472;52.328;13.070;2023-04-21T00:18:04;6.90;99.90
12815;DHT22;6472;52.328;13.070;2023-04-21T00:20:32;6.90;99.90
12815;DHT22;6472;52.328;13.070;2023-04-21T00:23:00;6.90;99.90
12815;DHT22;6472;52.328;13.070;2023-04-21T00:25:29;6.90;99.90
12815;DHT22;6472;52.328;13.070;2023-04-21T00:27:58;6.90;99.90
12815;DHT22;6472;52.328;13.070;2023-04-21T00:30:26;6.90;99.90
12815;DHT22;6472;52.328;13.070;2023-04-21T00:32:54;6.80;99.90
12815;DHT22;6472;52.328;13.070;2023-04-21T00:35:22;6.80;99.90
12815;DHT22;6472;52.328;13.070;2023-04-21T00:37:50;6.80;99.90
12815;DHT22;6472;52.328;13.070;2023-04-21T00:40:18;6.70;99.90
12815;DHT22;6472;52.328;13.070;2023-04-21T00:42:46;6.80;99.90
12815;DHT22;6472;52.328;13.070;2023-04-21T00:45:15;6.80;99.90
12815;DHT22;6472;52.328;13.070;2023-04-21T00:47:43;6.80;99.90
12815;DHT22;6472;52.328;13.070;2023-04-21T00:50:12;7.00;99.90
12815;DHT22;6472;52.328;13.070;2023-04-21T00:52:40;7.00;99.90
12815;DHT22;6472;52.328;13.070;2023-04-21T00:55:09;7.10;99.90
12815;DHT22;6472;52.328;13.070;2023-04-21T00:57:37;7.20;99.90
12815;DHT22;6472;52.328;13.070;2023-04-21T01:00:07;7.40;99.90
12815;DHT22;6472;52.328;13.070;2023-04-21T01:02:38;7.60;99.90
12815;DHT22;6472;52.328;13.070;2023-04-21T01:05:08;7.80;99.90
12815;DHT22;6472;52.328;13.070;2023-04-21T01:07:36;7.80;99.90
12815;DHT22;6472;52.328;13.070;2023-04-21T01:10:05;7.80;99.90
12815;DHT22;6472;52.328;13.070;2023-04-21T01:12:41;7.90;99.90
12815;DHT22;6472;52.328;13.070;2023-04-21T01:15:10;8.00;99.90
12815;DHT22;6472;52.328;13.070;2023-04-21T01:17:39;8.00;99.90
12815;DHT22;6472;52.328;13.070;2023-04-21T01:20:10;8.00;99.90
12815;DHT22;6472;52.328;13.070;2023-04-21T01:22:41;8.10;99.90
12815;DHT22;6472;52.328;13.070;2023-04-21T01:25:10;8.10;99.90
12815;DHT22;6472;52.328;13.070;2023-04-21T01:27:38;8.10;99.90
12815;DHT22;6472;52.328;13.070;2023-04-21T01:30:07;8.20;99.90
12815;DHT22;6472;52.328;13.070;2023-04-21T01:32:35;8.40;99.90
12815;DHT22;6472;52.328;13.070;2023-04-21T01:35:04;8.40;99.90
12815;DHT22;6472;52.328;13.070;2023-04-21T01:37:33;8.70;99.90
12815;DHT22;6472;52.328;13.070;2023-04-21T01:40:04;8.70;99.90
12815;DHT22;6472;52.328;13.070;2023-04-21T01:42:38;8.60;99.90
12815;DHT22;6472;52.328;13.070;2023-04-21T01:45:07;8.60;99.90
12815;DHT22;6472;52.328;13.070;2023-04-21T01:47:35;8.60;99.90
12815;DHT22;6472;52.328;13.070;2023-04-21T01:50:07;8.60;99.90
12815;DHT22;6472;52.328;13.070;2023-04-21T01:52:35;8.60;99.90
12815;DHT22;6472;52.328;13.070;2023-04-21T01:55:05;8.70;99.90
12815;DHT22;6472;52.328;13.070;2023-04-21T01:57:33;8.70;99.90
12815;DHT22;6472;52.328;13.070;2023-04-21T02:00:01;8.80;99.90
12815;DHT22;6472;52.328;13.070;2023-04-21T02:02:30;8.80;99.90
12815;DHT22;6472;52.328;13.070;2023-04-21T02:04:58;8.70;99.90
12815;DHT22;6472;52.328;13.070;2023-04-21T02:07:26;8.70;99.90
12815;DHT22;6472;52.328;13.070;2023-04-21T02:09:54;8.80;99.90
12815;DHT22;6472;52.328;13.070;2023-04-21T02:12:24;8.80;99.90
12815;DHT22;6472;52.328;13.070;2023-04-21T02:14:52;8.70;99.90
12815;DHT22;6472;52.328;13.070;2023-04-21T02:17:20;8.60;99.90
12815;DHT22;6472;52.328;13.070;2023-04-21T02:19:48;8.60;99.90
12815;DHT22;6472;52.328;13.070;2023-04-21T02:22:16;8.50;99.90
12815;DHT22;6472;52.328;13.070;2023-04-21T02:24:44;8.40;99.90
12815;DHT22;6472;52.328;13.070;2023-04-21T02:27:12;8.40;99.90
12815;DHT22;6472;52.328;13.070;2023-04-21T02:29:41;8.40;99.90
12815;DHT22;6472;52.328;13.070;2023-04-21T02:32:09;8.40;99.90
12815;DHT22;6472;52.328;13.070;2023-04-21T02:34:51;8.40;99.90
12815;DHT22;6472;52.328;13.070;2023-04-21T02:37:19;8.50;99.90
12815;DHT22;6472;52.328;13.070;2023-04-21T02:39:47;8.40;99.90
12815;DHT22;6472;52.328;13.070;2023-04-21T02:42:15;8.40;99.90
12815;DHT22;6472;52.328;13.070;2023-04-21T02:44:44;8.30;99.90
12815;DHT22;6472;52.328;13.070;2023-04-21T02:47:14;8.20;99.90
12815;DHT22;6472;52.328;13.070;2023-04-21T02:49:42;8.10;99.90
12815;DHT22;6472;52.328;13.070;2023-04-21T02:52:10;8.10;99.90
12815;DHT22;6472;52.328;13.070;2023-04-21T02:54:38;8.00;99.90
12815;DHT22;6472;52.328;13.070;2023-04-21T02:57:06;7.90;99.90
12815;DHT22;6472;52.328;13.070;2023-04-21T02:59:34;7.90;99.90
12815;DHT22;6472;52.328;13.070;2023-04-21T03:02:03;7.80;99.90
12815;DHT22;6472;52.328;13.070;2023-04-21T03:04:31;7.80;99.90
12815;DHT22;6472;52.328;13.070;2023-04-21T03:07:00;7.80;99.90
12815;DHT22;6472;52.328;13.070;2023-04-21T03:09:28;7.70;99.90
12815;DHT22;6472;52.328;13.070;2023-04-21T03:11:55;7.70;99.90
12815;DHT22;6472;52.328;13.070;2023-04-21T03:14:23;7.60;99.90
12815;DHT22;6472;52.328;13.070;2023-04-21T03:16:51;7.60;99.90
12815;DHT22;6472;52.328;13.070;2023-04-21T03:19:21;7.70;99.90
12815;DHT22;6472;52.328;13.070;2023-04-21T03:21:49;7.70;99.90
12815;DHT22;6472;52.328;13.070;2023-04-21T03:24:17;7.80;99.90
12815;DHT22;6472;52.328;13.070;2023-04-21T03:26:45;7.70;99.90
12815;DHT22;6472;52.328;13.070;2023-04-21T03:29:13;7.70;99.90
12815;DHT22;6472;52.328;13.070;2023-04-21T03:31:41;7.70;99.90
12815;DHT22;6472;52.328;13.070;2023-04-21T03:34:09;7.60;99.90
12815;DHT22;6472;52.328;13.070;2023-04-21T03:36:38;7.50;99.90
12815;DHT22;6472;52.328;13.070;2023-04-21T03:39:06;7.50;99.90
12815;DHT22;6472;52.328;13.070;2023-04-21T03:41:45;7.40;99.90
12815;DHT22;6472;52.328;13.070;2023-04-21T03:44:13;7.50;99.90
12815;DHT22;6472;52.328;13.070;2023-04-21T03:46:41;7.40;99.90
12815;DHT22;6472;52.328;13.070;2023-04-21T03:49:09;7.50;99.90
12815;DHT22;6472;52.328;13.070;2023-04-21T03:51:38;7.40;99.90
12815;DHT22;6472;52.328;13.070;2023-04-21T03:54:06;7.40;99.90
12815;DHT22;6472;52.328;13.070;2023-04-21T03:56:35;7.40;99.90
12815;DHT22;6472;52.328;13.070;2023-04-21T03:59:03;7.30;99.90
12815;DHT22;6472;52.328;13.070;2023-04-21T04:01:31;7.30;99.90
12815;DHT22;6472;52.328;13.070;2023-04-21T04:03:59;7.20;99.90
12815;DHT22;6472;52.328;13.070;2023-04-21T04:06:28;7.30;99.90
12815;DHT22;6472;52.328;13.070;2023-04-21T04:08:57;7.20;99.90
12815;DHT22;6472;52.328;13.070;2023-04-21T04:11:28;7.10;99.90
12815;DHT22;6472;52.328;13.070;2023-04-21T04:13:56;7.10;99.90
12815;DHT22;6472;52.328;13.070;2023-04-21T04:16:24;7.10;99.90
12815;DHT22;6472;52.328;13.070;2023-04-21T04:18:52;7.10;99.90
12815;DHT22;6472;52.328;13.070;2023-04-21T04:21:20;7.20;99.90
12815;DHT22;6472;52.328;13.070;2023-04-21T04:23:49;7.20;99.90
12815;DHT22;6472;52.328;13.070;2023-04-21T04:26:19;7.20;99.90
12815;DHT22;6472;52.328;13.070;2023-04-21T04:28:48;7.30;99.90
12815;DHT22;6472;52.328;13.070;2023-04-21T04:31:16;7.30;99.90
12815;DHT22;6472;52.328;13.070;2023-04-21T04:33:44;7.30;99.90
12815;DHT22;6472;52.328;13.070;2023-04-21T04:36:12;7.30;99.90
12815;DHT22;6472;52.328;13.070;2023-04-21T04:38:40;7.30;99.90
12815;DHT22;6472;52.328;13.070;2023-04-21T04:41:08;7.30;99.90
12815;DHT22;6472;52.328;13.070;2023-04-21T04:43:39;7.40;99.90
12815;DHT22;6472;52.328;13.070;2023-04-21T04:46:07;7.40;99.90
12815;DHT22;6472;52.328;13.070;2023-04-21T04:48:39;7.40;99.90
12815;DHT22;6472;52.328;13.070;2023-04-21T04:51:07;7.50;99.90
12815;DHT22;6472;52.328;13.070;2023-04-21T04:53:35;7.60;99.90
12815;DHT22;6472;52.328;13.070;2023-04-21T04:56:03;7.60;99.90
12815;DHT22;6472;52.328;13.070;2023-04-21T04:58:31;7.70;99.90
12815;DHT22;6472;52.328;13.070;2023-04-21T05:01:10;7.90;99.90
12815;DHT22;6472;52.328;13.070;2023-04-21T05:03:38;8.30;99.90
12815;DHT22;6472;52.328;13.070;2023-04-21T05:06:06;8.60;99.90
12815;DHT22;6472;52.328;13.070;2023-04-21T05:08:35;9.00;99.90
12815;DHT22;6472;52.328;13.070;2023-04-21T05:11:03;9.30;99.90
12815;DHT22;6472;52.328;13.070;2023-04-21T05:13:32;9.70;99.90
12815;DHT22;6472;52.328;13.070;2023-04-21T05:16:01;10.30;99.90
12815;DHT22;6472;52.328;13.070;2023-04-21T05:18:29;10.50;99.90
12815;DHT22;6472;52.328;13.070;2023-04-21T05:20:57;10.60;99.90
12815;DHT22;6472;52.328;13.070;2023-04-21T05:23:25;11.20;99.90
12815;DHT22;6472;52.328;13.070;2023-04-21T05:25:53;11.70;99.90
12815;DHT22;6472;52.328;13.070;2023-04-21T05:28:21;11.80;99.90
12815;DHT22;6472;52.328;13.070;2023-04-21T05:30:49;12.10;99.90
12815;DHT22;6472;52.328;13.070;2023-04-21T05:33:19;12.40;99.90
12815;DHT22;6472;52.328;13.070;2023-04-21T05:35:47;12.70;99.90
12815;DHT22;6472;52.328;13.070;2023-04-21T05:38:15;13.20;99.90
12815;DHT22;6472;52.328;13.070;2023-04-21T05:40:43;13.70;99.90
12815;DHT22;6472;52.328;13.070;2023-04-21T05:43:11;13.60;99.90
12815;DHT22;6472;52.328;13.070;2023-04-21T05:45:39;13.50;99.90
12815;DHT22;6472;52.328;13.070;2023-04-21T05:48:07;13.80;99.90
12815;DHT22;6472;52.328;13.070;2023-04-21T05:50:39;14.20;99.90
12815;DHT22;6472;52.328;13.070;2023-04-21T05:53:08;14.60;99.90
12815;DHT22;6472;52.328;13.070;2023-04-21T05:55:36;14.70;99.90
12815;DHT22;6472;52.328;13.070;2023-04-21T05:58:04;14.80;99.90
12815;DHT22;6472;52.328;13.070;2023-04-21T06:00:32;14.80;99.90
12815;DHT22;6472;52.328;13.070;2023-04-21T06:03:00;14.70;99.90
12815;DHT22;6472;52.328;13.070;2023-04-21T06:05:28;14.40;99.90
12815;DHT22;6472;52.328;13.070;2023-04-21T06:07:58;14.30;99.90
12815;DHT22;6472;52.328;13.070;2023-04-21T06:10:26;14.40;99.90
12815;DHT22;6472;52.328;13.070;2023-04-21T06:12:56;14.30;99.90
12815;DHT22;6472;52.328;13.070;2023-04-21T06:15:24;14.20;99.90
12815;DHT22;6472;52.328;13.070;2023-04-21T06:17:53;14.30;99.90
12815;DHT22;6472;52.328;13.070;2023-04-21T06:20:21;14.40;99.90
12815;DHT22;6472;52.328;13.070;2023-04-21T06:22:49;14.70;99.90
12815;DHT22;6472;52.328;13.070;2023-04-21T06:25:19;14.80;99.90
12815;DHT22;6472;52.328;13.070;2023-04-21T06:27:47;15.00;99.90
12815;DHT22;6472;52.328;13.070;2023-04-21T06:30:15;15.10;99.90
12815;DHT22;6472;52.328;13.070;2023-04-21T06:32:44;15.00;99.90
12815;DHT22;6472;52.328;13.070;2023-04-21T06:35:14;14.70;99.90
12815;DHT22;6472;52.328;13.070;2023-04-21T06:37:43;14.50;99.90
12815;DHT22;6472;52.328;13.070;2023-04-21T06:40:11;14.50;99.90
12815;DHT22;6472;52.328;13.070;2023-04-21T06:42:43;14.60;99.90
12815;DHT22;6472;52.328;13.070;2023-04-21T06:45:11;14.50;99.90
12815;DHT22;6472;52.328;13.070;2023-04-21T06:47:39;14.40;99.90
12815;DHT22;6472;52.328;13.070;2023-04-21T06:50:07;14.30;99.90
12815;DHT22;6472;52.328;13.070;2023-04-21T06:52:35;14.40;99.90
12815;DHT22;6472;52.328;13.070;2023-04-21T06:55:04;14.40;99.90
12815;DHT22;6472;52.328;13.070;2023-04-21T06:57:32;14.50;99.90
12815;DHT22;6472;52.328;13.070;2023-04-21T07:00:03;14.90;99.90
12815;DHT22;6472;52.328;13.070;2023-04-21T07:02:32;15.20;99.90
12815;DHT22;6472;52.328;13.070;2023-04-21T07:05:00;15.30;99.90
12815;DHT22;6472;52.328;13.070;2023-04-21T07:07:28;15.30;99.90
12815;DHT22;6472;52.328;13.070;2023-04-21T07:09:56;15.40;99.90
12815;DHT22;6472;52.328;13.070;2023-04-21T07:12:24;15.40;99.90
12815;DHT22;6472;52.328;13.070;2023-04-21T07:14:52;15.60;99.90
12815;DHT22;6472;52.328;13.070;2023-04-21T07:17:21;15.70;99.90
12815;DHT22;6472;52.328;13.070;2023-04-21T07:19:49;16.00;99.90
12815;DHT22;6472;52.328;13.070;2023-04-21T07:22:17;16.20;99.90
12815;DHT22;6472;52.328;13.070;2023-04-21T07:24:46;16.60;99.90
12815;DHT22;6472;52.328;13.070;2023-04-21T07:27:15;16.70;99.60
12815;DHT22;6472;52.328;13.070;2023-04-21T07:29:44;16.80;98.60
12815;DHT22;6472;52.328;13.070;2023-04-21T07:32:12;16.60;96.30
12815;DHT22;6472;52.328;13.070;2023-04-21T07:34:42;16.70;98.10
12815;DHT22;6472;52.328;13.070;2023-04-21T07:37:12;16.60;96.40
12815;DHT22;6472;52.328;13.070;2023-04-21T07:39:40;16.80;96.70
12815;DHT22;6472;52.328;13.070;2023-04-21T07:42:09;16.90;97.40
12815;DHT22;6472;52.328;13.070;2023-04-21T07:44:37;17.10;95.60
12815;DHT22;6472;52.328;13.070;2023-04-21T07:47:05;17.30;97.10
12815;DHT22;6472;52.328;13.070;2023-04-21T07:49:33;17.50;95.00
12815;DHT22;6472;52.328;13.070;2023-04-21T07:52:02;17.80;94.40
12815;DHT22;6472;52.328;13.070;2023-04-21T07:54:30;17.80;94.10
12815;DHT22;6472;52.328;13.070;2023-04-21T07:56:58;17.90;92.00
12815;DHT22;6472;52.328;13.070;2023-04-21T07:59:27;18.00;93.30
12815;DHT22;6472;52.328;13.070;2023-04-21T08:01:55;18.30;93.10
12815;DHT22;6472;52.328;13.070;2023-04-21T08:04:23;18.50;92.10
12815;DHT22;6472;52.328;13.070;2023-04-21T08:06:51;18.60;90.50
12815;DHT22;6472;52.328;13.070;2023-04-21T08:09:21;18.60;91.80
12815;DHT22;6472;52.328;13.070;2023-04-21T08:11:49;18.80;90.30
12815;DHT22;6472;52.328;13.070;2023-04-21T08:14:17;19.10;90.20
12815;DHT22;6472;52.328;13.070;2023-04-21T08:16:46;19.20;89.00
12815;DHT22;6472;52.328;13.070;2023-04-21T08:19:14;19.40;86.60
12815;DHT22;6472;52.328;13.070;2023-04-21T08:21:42;19.30;84.40
12815;DHT22;6472;52.328;13.070;2023-04-21T08:24:10;19.40;84.60
12815;DHT22;6472;52.328;13.070;2023-04-21T08:26:40;19.40;82.90
12815;DHT22;6472;52.328;13.070;2023-04-21T08:29:08;19.60;86.40
12815;DHT22;6472;52.328;13.070;2023-04-21T08:31:36;20.00;82.60
12815;DHT22;6472;52.328;13.070;2023-04-21T08:34:05;20.30;81.90
12815;DHT22;6472;52.328;13.070;2023-04-21T08:36:33;20.30;79.80
12815;DHT22;6472;52.328;13.070;2023-04-21T08:39:01;20.30;75.50
12815;DHT22;6472;52.328;13.070;2023-04-21T08:41:29;20.40;77.30
12815;DHT22;6472;52.328;13.070;2023-04-21T08:43:59;20.00;75.20
12815;DHT22;6472;52.328;13.070;2023-04-21T08:46:27;19.90;76.80
12815;DHT22;6472;52.328;13.070;2023-04-21T08:48:57;19.80;81.30
12815;DHT22;6472;52.328;13.070;2023-04-21T08:51:26;19.90;78.10
12815;DHT22;6472;52.328;13.070;2023-04-21T08:53:56;20.00;75.90
12815;DHT22;6472;52.328;13.070;2023-04-21T08:56:24;20.30;76.40
12815;DHT22;6472;52.328;13.070;2023-04-21T08:58:53;20.30;76.50
12815;DHT22;6472;52.328;13.070;2023-04-21T09:01:22;20.50;78.60
12815;DHT22;6472;52.328;13.070;2023-04-21T09:03:50;20.70;73.70
12815;DHT22;6472;52.328;13.070;2023-04-21T09:06:19;20.90;75.30
12815;DHT22;6472;52.328;13.070;2023-04-21T09:08:53;21.20;73.30
12815;DHT22;6472;52.328;13.070;2023-04-21T09:11:22;21.60;73.70
12815;DHT22;6472;52.328;13.070;2023-04-21T09:13:50;22.00;70.70
12815;DHT22;6472;52.328;13.070;2023-04-21T09:16:20;22.20;67.80
12815;DHT22;6472;52.328;13.070;2023-04-21T09:18:50;22.30;65.60
12815;DHT22;6472;52.328;13.070;2023-04-21T09:21:18;22.10;64.40
12815;DHT22;6472;52.328;13.070;2023-04-21T09:23:50;21.80;63.10
12815;DHT22;6472;52.328;13.070;2023-04-21T09:26:20;21.10;65.10
12815;DHT22;6472;52.328;13.070;2023-04-21T09:28:51;21.10;66.30
12815;DHT22;6472;52.328;13.070;2023-04-21T09:31:20;21.50;68.30
12815;DHT22;6472;52.328;13.070;2023-04-21T09:33:53;21.80;68.40
12815;DHT22;6472;52.328;13.070;2023-04-21T09:36:27;21.40;66.60
12815;DHT22;6472;52.328;13.070;2023-04-21T09:38:57;21.10;64.80
12815;DHT22;6472;52.328;13.070;2023-04-21T09:41:30;21.10;68.90
12815;DHT22;6472;52.328;13.070;2023-04-21T09:43:59;21.00;63.20
12815;DHT22;6472;52.328;13.070;2023-04-21T09:46:32;21.00;69.10
12815;DHT22;6472;52.328;13.070;2023-04-21T09:49:02;21.10;68.30
12815;DHT22;6472;52.328;13.070;2023-04-21T09:51:31;21.20;64.20
12815;DHT22;6472;52.328;13.070;2023-04-21T09:54:06;21.40;65.20
12815;DHT22;6472;52.328;13.070;2023-04-21T09:56:58;21.20;64.20
12815;DHT22;6472;52.328;13.070;2023-04-21T09:59:31;20.90;64.70
12815;DHT22;6472;52.328;13.070;2023-04-21T10:02:00;20.90;69.50
12815;DHT22;6472;52.328;13.070;2023-04-21T10:07:08;21.40;63.30
12815;DHT22;6472;52.328;13.070;2023-04-21T10:09:40;21.30;62.10
12815;DHT22;6472;52.328;13.070;2023-04-21T10:12:10;21.40;64.00
12815;DHT22;6472;52.328;13.070;2023-04-21T10:14:40;21.40;63.80
12815;DHT22;6472;52.328;13.070;2023-04-21T10:17:09;21.60;61.50
12815;DHT22;6472;52.328;13.070;2023-04-21T10:19:46;21.40;61.50
12815;DHT22;6472;52.328;13.070;2023-04-21T10:22:25;21.10;59.80
12815;DHT22;6472;52.328;13.070;2023-04-21T10:24:55;20.80;61.70
12815;DHT22;6472;52.328;13.070;2023-04-21T10:27:30;20.70;59.00
12815;DHT22;6472;52.328;13.070;2023-04-21T10:29:59;20.60;59.50
12815;DHT22;6472;52.328;13.070;2023-04-21T10:32:37;20.70;61.00
12815;DHT22;6472;52.328;13.070;2023-04-21T10:35:10;20.90;60.00
12815;DHT22;6472;52.328;13.070;2023-04-21T10:37:42;20.60;59.50
12815;DHT22;6472;52.328;13.070;2023-04-21T10:40:33;20.30;59.90
12815;DHT22;6472;52.328;13.070;2023-04-21T10:43:42;20.30;59.40
12815;DHT22;6472;52.328;13.070;2023-04-21T10:46:31;20.30;59.60
12815;DHT22;6472;52.328;13.070;2023-04-21T10:49:04;20.30;57.20
12815;DHT22;6472;52.328;13.070;2023-04-21T10:51:32;20.30;57.90
12815;DHT22;6472;52.328;13.070;2023-04-21T10:54:22;20.20;58.10
12815;DHT22;6472;52.328;13.070;2023-04-21T10:56:52;20.30;58.10
12815;DHT22;6472;52.328;13.070;2023-04-21T10:59:21;20.20;58.00
12815;DHT22;6472;52.328;13.070;2023-04-21T11:01:49;20.20;59.30
12815;DHT22;6472;52.328;13.070;2023-04-21T11:04:19;20.20;58.40
12815;DHT22;6472;52.328;13.070;2023-04-21T11:07:05;20.10;57.90
12815;DHT22;6472;52.328;13.070;2023-04-21T11:09:35;20.20;59.40
12815;DHT22;6472;52.328;13.070;2023-04-21T11:12:05;20.20;56.60
12815;DHT22;6472;52.328;13.070;2023-04-21T11:14:36;20.40;56.20
12815;DHT22;6472;52.328;13.070;2023-04-21T11:17:09;20.40;55.00
12815;DHT22;6472;52.328;13.070;2023-04-21T11:19:38;20.30;55.00
12815;DHT22;6472;52.328;13.070;2023-04-21T11:22:06;20.30;55.90
12815;DHT22;6472;52.328;13.070;2023-04-21T11:24:35;20.40;55.50
12815;DHT22;6472;52.328;13.070;2023-04-21T11:27:07;20.50;55.60
12815;DHT22;6472;52.328;13.070;2023-04-21T11:29:37;20.40;56.70
12815;DHT22;6472;52.328;13.070;2023-04-21T11:32:06;20.40;55.50
12815;DHT22;6472;52.328;13.070;2023-04-21T11:34:36;20.50;54.30
12815;DHT22;6472;52.328;13.070;2023-04-21T11:37:06;20.50;53.10
12815;DHT22;6472;52.328;13.070;2023-04-21T11:39:39;20.40;53.10
12815;DHT22;6472;52.328;13.070;2023-04-21T11:42:08;20.30;53.50
12815;DHT22;6472;52.328;13.070;2023-04-21T11:44:38;20.40;52.80
12815;DHT22;6472;52.328;13.070;2023-04-21T11:47:13;20.40;51.10
12815;DHT22;6472;52.328;13.070;2023-04-21T11:49:46;20.50;52.70
12815;DHT22;6472;52.328;13.070;2023-04-21T11:52:21;20.70;52.00
12815;DHT22;6472;52.328;13.070;2023-04-21T11:55:02;20.70;52.10
12815;DHT22;6472;52.328;13.070;2023-04-21T11:57:32;20.80;53.10
12815;DHT22;6472;52.328;13.070;2023-04-21T12:00:01;20.90;52.20
12815;DHT22;6472;52.328;13.070;2023-04-21T12:02:30;20.70;51.80
12815;DHT22;6472;52.328;13.070;2023-04-21T12:05:00;20.40;49.30
12815;DHT22;6472;52.328;13.070;2023-04-21T12:07:30;20.30;51.20
12815;DHT22;6472;52.328;13.070;2023-04-21T12:10:00;20.50;51.70
12815;DHT22;6472;52.328;13.070;2023-04-21T12:12:28;20.70;50.80
12815;DHT22;6472;52.328;13.070;2023-04-21T12:14:56;20.60;51.50
12815;DHT22;6472;52.328;13.070;2023-04-21T12:17:24;20.80;50.40
12815;DHT22;6472;52.328;13.070;2023-04-21T12:19:52;20.90;52.20
12815;DHT22;6472;52.328;13.070;2023-04-21T12:22:20;20.60;49.50
12815;DHT22;6472;52.328;13.070;2023-04-21T12:24:49;20.40;50.70
12815;DHT22;6472;52.328;13.070;2023-04-21T12:27:19;20.50;51.10
12815;DHT22;6472;52.328;13.070;2023-04-21T12:29:47;20.40;50.80
12815;DHT22;6472;52.328;13.070;2023-04-21T12:32:15;20.50;51.30
12815;DHT22;6472;52.328;13.070;2023-04-21T12:34:43;20.60;52.20
12815;DHT22;6472;52.328;13.070;2023-04-21T12:37:11;20.90;52.10
12815;DHT22;6472;52.328;13.070;2023-04-21T12:39:39;21.10;52.10
12815;DHT22;6472;52.328;13.070;2023-04-21T12:42:07;21.20;51.80
12815;DHT22;6472;52.328;13.070;2023-04-21T12:44:38;21.30;50.70
12815;DHT22;6472;52.328;13.070;2023-04-21T12:47:06;21.40;51.20
12815;DHT22;6472;52.328;13.070;2023-04-21T12:49:34;21.50;49.90
12815;DHT22;6472;52.328;13.070;2023-04-21T12:52:02;21.40;50.10
12815;DHT22;6472;52.328;13.070;2023-04-21T12:54:32;21.20;49.20
12815;DHT22;6472;52.328;13.070;2023-04-21T12:57:00;21.30;51.00
12815;DHT22;6472;52.328;13.070;2023-04-21T12:59:28;21.40;50.90
12815;DHT22;6472;52.328;13.070;2023-04-21T13:01:58;21.50;50.70
12815;DHT22;6472;52.328;13.070;2023-04-21T13:04:26;21.40;52.00
12815;DHT22;6472;52.328;13.070;2023-04-21T13:06:55;21.50;50.20
12815;DHT22;6472;52.328;13.070;2023-04-21T13:09:23;21.50;51.60
12815;DHT22;6472;52.328;13.070;2023-04-21T13:11:52;21.80;52.50
12815;DHT22;6472;52.328;13.070;2023-04-21T13:14:20;21.80;52.10
12815;DHT22;6472;52.328;13.070;2023-04-21T13:16:48;22.00;53.30
12815;DHT22;6472;52.328;13.070;2023-04-21T13:19:17;22.00;54.80
12815;DHT22;6472;52.328;13.070;2023-04-21T13:21:46;22.00;55.00
12815;DHT22;6472;52.328;13.070;2023-04-21T13:24:14;22.00;55.90
12815;DHT22;6472;52.328;13.070;2023-04-21T13:26:42;21.70;53.80
12815;DHT22;6472;52.328;13.070;2023-04-21T13:29:11;21.80;53.30
12815;DHT22;6472;52.328;13.070;2023-04-21T13:31:39;21.70;50.30
12815;DHT22;6472;52.328;13.070;2023-04-21T13:34:07;21.70;50.40
12815;DHT22;6472;52.328;13.070;2023-04-21T13:36:37;21.60;50.20
12815;DHT22;6472;52.328;13.070;2023-04-21T13:39:08;21.40;50.40
12815;DHT22;6472;52.328;13.070;2023-04-21T13:41:36;21.50;50.70
12815;DHT22;6472;52.328;13.070;2023-04-21T13:44:04;21.40;49.10
12815;DHT22;6472;52.328;13.070;2023-04-21T13:46:32;21.50;48.10
12815;DHT22;6472;52.328;13.070;2023-04-21T13:49:00;21.40;48.60
12815;DHT22;6472;52.328;13.070;2023-04-21T13:51:28;21.30;48.00
12815;DHT22;6472;52.328;13.070;2023-04-21T13:53:59;21.40;48.80
12815;DHT22;6472;52.328;13.070;2023-04-21T13:56:28;21.50;49.10
12815;DHT22;6472;52.328;13.070;2023-04-21T13:58:56;21.40;47.40
12815;DHT22;6472;52.328;13.070;2023-04-21T14:01:25;21.30;47.40
12815;DHT22;6472;52.328;13.070;2023-04-21T14:03:53;21.20;49.40
12815;DHT22;6472;52.328;13.070;2023-04-21T14:06:23;21.20;48.90
12815;DHT22;6472;52.328;13.070;2023-04-21T14:08:51;21.10;47.80
12815;DHT22;6472;52.328;13.070;2023-04-21T14:11:21;21.00;49.30
12815;DHT22;6472;52.328;13.070;2023-04-21T14:13:49;20.70;49.20
12815;DHT22;6472;52.328;13.070;2023-04-21T14:16:34;20.80;49.10
12815;DHT22;6472;52.328;13.070;2023-04-21T14:19:02;20.80;49.60
12815;DHT22;6472;52.328;13.070;2023-04-21T14:21:30;20.80;50.40
12815;DHT22;6472;52.328;13.070;2023-04-21T14:23:59;20.90;50.10
12815;DHT22;6472;52.328;13.070;2023-04-21T14:26:28;21.00;50.10
12815;DHT22;6472;52.328;13.070;2023-04-21T14:28:56;21.00;49.20
12815;DHT22;6472;52.328;13.070;2023-04-21T14:31:25;20.90;49.50
12815;DHT22;6472;52.328;13.070;2023-04-21T14:33:53;20.90;50.00
12815;DHT22;6472;52.328;13.070;2023-04-21T14:36:21;20.80;49.20
12815;DHT22;6472;52.328;13.070;2023-04-21T14:38:49;20.70;49.70
12815;DHT22;6472;52.328;13.070;2023-04-21T14:41:17;20.60;49.00
12815;DHT22;6472;52.328;13.070;2023-04-21T14:43:47;20.60;49.00
12815;DHT22;6472;52.328;13.070;2023-04-21T14:46:19;20.60;48.50
12815;DHT22;6472;52.328;13.070;2023-04-21T14:48:47;20.60;49.50
12815;DHT22;6472;52.328;13.070;2023-04-21T14:51:16;20.60;49.10
12815;DHT22;6472;52.328;13.070;2023-04-21T14:53:45;20.40;49.20
12815;DHT22;6472;52.328;13.070;2023-04-21T14:56:13;20.30;48.40
12815;DHT22;6472;52.328;13.070;2023-04-21T14:58:41;20.20;49.90
12815;DHT22;6472;52.328;13.070;2023-04-21T15:01:10;20.30;49.00
12815;DHT22;6472;52.328;13.070;2023-04-21T15:03:39;20.20;49.70
12815;DHT22;6472;52.328;13.070;2023-04-21T15:06:08;20.30;49.10
12815;DHT22;6472;52.328;13.070;2023-04-21T15:08:36;20.30;48.40
12815;DHT22;6472;52.328;13.070;2023-04-21T15:11:05;20.20;48.90
12815;DHT22;6472;52.328;13.070;2023-04-21T15:13:33;20.10;49.60
12815;DHT22;6472;52.328;13.070;2023-04-21T15:16:01;20.10;49.80
12815;DHT22;6472;52.328;13.070;2023-04-21T15:18:30;20.10;49.80
12815;DHT22;6472;52.328;13.070;2023-04-21T15:20:59;20.10;49.20
12815;DHT22;6472;52.328;13.070;2023-04-21T15:23:27;20.10;49.40
12815;DHT22;6472;52.328;13.070;2023-04-21T15:25:57;20.10;49.20
12815;DHT22;6472;52.328;13.070;2023-04-21T15:28:25;20.00;49.20
12815;DHT22;6472;52.328;13.070;2023-04-21T15:30:53;20.00;49.40
12815;DHT22;6472;52.328;13.070;2023-04-21T15:33:21;20.00;50.60
12815;DHT22;6472;52.328;13.070;2023-04-21T15:35:50;20.00;49.40
12815;DHT22;6472;52.328;13.070;2023-04-21T15:38:18;19.90;49.90
12815;DHT22;6472;52.328;13.070;2023-04-21T15:40:47;19.90;49.40
12815;DHT22;6472;52.328;13.070;2023-04-21T15:43:26;19.90;50.70
12815;DHT22;6472;52.328;13.070;2023-04-21T15:45:54;19.80;50.10
12815;DHT22;6472;52.328;13.070;2023-04-21T15:48:22;19.70;48.80
12815;DHT22;6472;52.328;13.070;2023-04-21T15:50:51;19.60;50.10